Time;durP1;ratioP1;P1;durP2;ratioP2;P2;SDS_P1;SDS_P2;PMS_P1;PMS_P2;Temp;Humidity;BMP_temperature;BMP_pressure;BME280_temperature;BME280_humidity;BME280_pressure;Samples;Min_cycle;Max_cycle;Signal;HPM_P1;HPM_P2
2021/06/14 00:00:21;;;;;;;14.40;6.68;;;16.10;99.90;;;;;;5092792;28;20101;-59
2021/06/14 00:02:47;;;;;;;11.15;6.70;;;16.10;99.90;;;;;;5092319;28;20044;-59
2021/06/14 00:05:17;;;;;;;11.13;5.78;;;16.10;99.90;;;;;;5092587;28;20482;-59
2021/06/14 00:07:43;;;;;;;15.15;6.13;;;16.20;99.90;;;;;;5092420;28;20040;-59
2021/06/14 00:10:11;;;;;;;13.80;6.20;;;16.20;99.90;;;;;;5092564;28;20044;-59
2021/06/14 00:12:36;;;;;;;14.15;6.93;;;16.10;99.90;;;;;;5092402;28;20036;-59
2021/06/14 00:15:04;;;;;;;15.57;6.93;;;16.10;99.90;;;;;;5092822;28;20047;-59
2021/06/14 00:17:30;;;;;;;16.37;7.33;;;16.10;99.90;;;;;;5092573;28;20044;-58
2021/06/14 00:19:56;;;;;;;14.82;6.95;;;16.10;99.90;;;;;;5092485;28;20040;-59
2021/06/14 00:22:22;;;;;;;13.13;6.90;;;16.10;99.90;;;;;;5092346;28;20068;-59
2021/06/14 00:24:48;;;;;;;13.48;6.43;;;16.00;99.90;;;;;;5092630;28;20044;-59
2021/06/14 00:27:14;;;;;;;11.23;6.93;;;16.00;99.90;;;;;;5092373;28;20102;-59
2021/06/14 00:29:40;;;;;;;13.77;7.05;;;16.10;99.90;;;;;;5092485;28;20417;-59
2021/06/14 00:32:07;;;;;;;13.40;6.60;;;16.10;99.90;;;;;;5092571;28;20048;-59
2021/06/14 00:34:33;;;;;;;14.90;6.80;;;16.00;99.90;;;;;;5092482;28;20036;-59
2021/06/14 00:36:59;;;;;;;12.90;7.47;;;16.00;99.90;;;;;;5092107;28;20127;-59
2021/06/14 00:39:24;;;;;;;15.55;6.97;;;15.90;99.90;;;;;;5092031;28;20118;-59
2021/06/14 00:41:50;;;;;;;12.90;7.03;;;16.00;99.90;;;;;;5092462;28;20050;-59
2021/06/14 00:44:16;;;;;;;12.13;7.28;;;16.00;99.90;;;;;;5091965;28;20079;-59
2021/06/14 00:46:42;;;;;;;12.48;6.65;;;16.00;99.90;;;;;;5092244;28;20040;-59
2021/06/14 00:49:08;;;;;;;13.77;7.03;;;16.00;99.90;;;;;;5073791;28;20058;-59
2021/06/14 00:51:34;;;;;;;8.40;6.35;;;16.00;99.90;;;;;;5092490;28;20036;-59
2021/06/14 00:54:00;;;;;;;11.18;6.40;;;16.00;99.90;;;;;;5091859;28;20043;-59
2021/06/14 00:56:27;;;;;;;12.80;5.88;;;16.00;99.90;;;;;;5092298;28;20370;-59
2021/06/14 00:58:53;;;;;;;10.40;5.90;;;15.90;99.90;;;;;;5091862;28;20465;-59
2021/06/14 01:01:19;;;;;;;12.02;6.03;;;16.00;99.90;;;;;;5092176;28;20090;-59
2021/06/14 01:03:45;;;;;;;12.20;6.20;;;16.00;99.90;;;;;;5092215;28;20822;-59
2021/06/14 01:06:13;;;;;;;13.05;6.22;;;16.00;99.90;;;;;;5091848;28;20482;-59
2021/06/14 01:08:51;;;;;;;13.13;6.03;;;15.90;99.90;;;;;;5093849;28;20044;-59
2021/06/14 01:11:52;;;;;;;11.88;5.88;;;15.90;99.90;;;;;;5095571;28;20082;-59
2021/06/14 01:14:33;;;;;;;14.13;5.82;;;15.90;99.90;;;;;;5094923;28;20106;-59
2021/06/14 01:17:13;;;;;;;10.05;5.65;;;15.90;99.90;;;;;;5095145;28;20055;-59
2021/06/14 01:20:16;;;;;;;7.68;4.82;;;15.90;99.90;;;;;;5095186;28;20051;-59
2021/06/14 01:22:53;;;;;;;7.40;5.05;;;15.90;99.90;;;;;;5095158;28;20055;-59
2021/06/14 01:25:24;;;;;;;8.60;5.63;;;15.90;99.90;;;;;;5095107;28;20185;-58
2021/06/14 01:27:53;;;;;;;8.85;4.78;;;15.90;99.90;;;;;;5095262;28;20037;-60
2021/06/14 01:30:26;;;;;;;10.07;5.45;;;15.90;99.90;;;;;;5095092;28;20044;-59
2021/06/14 01:32:54;;;;;;;10.30;5.30;;;15.80;99.90;;;;;;5095398;28;20070;-59
2021/06/14 01:35:25;;;;;;;14.60;5.38;;;15.80;99.90;;;;;;5095084;28;20040;-59
2021/06/14 01:37:55;;;;;;;8.98;5.90;;;15.90;99.90;;;;;;5094748;28;20075;-58
2021/06/14 01:40:23;;;;;;;13.57;4.50;;;15.80;99.90;;;;;;5095067;28;20050;-59
2021/06/14 01:42:52;;;;;;;7.45;5.50;;;15.80;99.90;;;;;;5094919;28;20064;-59
2021/06/14 01:45:19;;;;;;;6.35;4.80;;;15.60;99.90;;;;;;5094836;28;20397;-59
2021/06/14 01:47:46;;;;;;;11.00;4.88;;;15.80;99.90;;;;;;5094508;28;20040;-59
2021/06/14 01:50:12;;;;;;;10.55;5.25;;;15.70;99.90;;;;;;5076992;28;20048;-59
2021/06/14 01:52:38;;;;;;;9.77;4.60;;;15.80;99.90;;;;;;5094959;28;20043;-59
2021/06/14 01:55:05;;;;;;;8.27;4.53;;;15.70;99.90;;;;;;5095005;28;20044;-59
2021/06/14 01:57:33;;;;;;;12.65;5.95;;;15.70;99.90;;;;;;5094673;28;20123;-59
2021/06/14 01:59:59;;;;;;;21.17;4.95;;;15.70;99.90;;;;;;5094476;28;20040;-59
2021/06/14 02:02:29;;;;;;;8.25;5.60;;;15.60;99.90;;;;;;5094446;28;20106;-59
2021/06/14 02:04:56;;;;;;;7.53;4.55;;;15.60;99.90;;;;;;5094783;28;20397;-59
2021/06/14 02:07:22;;;;;;;10.07;4.65;;;15.70;99.90;;;;;;5094543;28;20047;-59
2021/06/14 02:09:49;;;;;;;8.20;4.72;;;15.70;99.90;;;;;;5094616;28;20094;-59
2021/06/14 02:12:15;;;;;;;9.02;4.72;;;15.60;99.90;;;;;;5094371;28;20055;-59
2021/06/14 02:14:43;;;;;;;16.33;6.70;;;15.60;99.90;;;;;;5094527;28;20040;-59
2021/06/14 02:17:12;;;;;;;10.82;4.78;;;15.60;99.90;;;;;;5094307;28;20044;-59
2021/06/14 02:19:43;;;;;;;10.32;4.90;;;15.60;99.90;;;;;;5093148;28;20059;-59
2021/06/14 02:22:11;;;;;;;10.43;5.88;;;15.60;99.90;;;;;;5094407;28;20789;-59
2021/06/14 02:24:37;;;;;;;6.50;4.00;;;15.60;99.90;;;;;;5094381;28;20052;-58
2021/06/14 02:27:03;;;;;;;10.02;5.05;;;15.60;99.90;;;;;;5094230;28;20302;-59
2021/06/14 02:29:29;;;;;;;8.82;4.85;;;15.50;99.90;;;;;;5094166;28;20040;-59
2021/06/14 02:31:55;;;;;;;8.75;4.15;;;15.50;99.90;;;;;;5094103;28;20059;-59
2021/06/14 02:34:22;;;;;;;7.45;4.50;;;15.50;99.90;;;;;;5093748;28;20051;-60
2021/06/14 02:36:48;;;;;;;9.52;4.60;;;15.50;99.90;;;;;;5094302;28;20043;-59
2021/06/14 02:39:17;;;;;;;9.55;4.82;;;15.40;99.90;;;;;;5093817;28;20572;-58
2021/06/14 02:41:45;;;;;;;10.13;4.80;;;15.40;99.90;;;;;;5094141;28;20044;-59
2021/06/14 02:44:11;;;;;;;11.52;5.43;;;15.40;99.90;;;;;;5093966;28;20040;-59
2021/06/14 02:46:42;;;;;;;14.57;6.00;;;15.40;99.90;;;;;;5093441;28;20036;-59
2021/06/14 02:49:10;;;;;;;9.75;5.18;;;15.40;99.90;;;;;;5093664;28;20075;-59
2021/06/14 02:51:37;;;;;;;9.85;4.82;;;15.40;99.90;;;;;;5093807;28;20421;-59
2021/06/14 02:54:07;;;;;;;9.73;4.93;;;15.40;99.90;;;;;;5093508;28;20385;-59
2021/06/14 02:56:36;;;;;;;9.50;4.55;;;15.40;99.90;;;;;;5093822;28;20101;-59
2021/06/14 02:59:07;;;;;;;9.68;5.22;;;15.40;99.90;;;;;;5093591;28;20079;-59
2021/06/14 03:01:33;;;;;;;8.88;5.07;;;15.30;99.90;;;;;;5093351;28;20051;-59
2021/06/14 03:04:01;;;;;;;9.68;4.63;;;15.30;99.90;;;;;;5093626;28;20040;-60
2021/06/14 03:06:28;;;;;;;10.38;5.20;;;15.30;99.90;;;;;;5093133;28;20047;-59
2021/06/14 03:08:55;;;;;;;10.10;4.95;;;15.30;99.90;;;;;;5093266;28;20052;-59
2021/06/14 03:11:24;;;;;;;11.80;5.30;;;15.30;99.90;;;;;;5093593;28;20040;-59
2021/06/14 03:13:51;;;;;;;7.38;4.72;;;15.20;99.90;;;;;;5093033;28;20040;-59
2021/06/14 03:16:18;;;;;;;8.07;4.60;;;15.20;99.90;;;;;;5093338;28;20052;-59
2021/06/14 03:18:45;;;;;;;10.73;5.55;;;15.20;99.90;;;;;;5092866;28;20154;-59
2021/06/14 03:21:11;;;;;;;9.27;5.15;;;15.10;99.90;;;;;;5093176;28;20080;-58
2021/06/14 03:23:37;;;;;;;13.00;5.75;;;15.10;99.90;;;;;;5093166;28;20085;-59
2021/06/14 03:26:07;;;;;;;10.77;5.53;;;15.10;99.90;;;;;;5093305;28;20397;-59
2021/06/14 03:28:33;;;;;;;10.45;5.05;;;15.10;99.90;;;;;;5093016;28;20486;-59
2021/06/14 03:31:00;;;;;;;14.38;5.57;;;15.00;99.90;;;;;;5092619;28;20117;-59
2021/06/14 03:33:26;;;;;;;9.48;5.03;;;14.90;99.90;;;;;;5093004;28;20036;-59
2021/06/14 03:35:54;;;;;;;11.18;5.22;;;14.90;99.90;;;;;;5093165;28;20044;-59
2021/06/14 03:38:20;;;;;;;12.32;6.18;;;15.00;99.90;;;;;;5092919;28;20458;-59
2021/06/14 03:40:46;;;;;;;9.15;5.30;;;15.00;99.90;;;;;;5092931;28;20071;-59
2021/06/14 03:43:12;;;;;;;10.80;5.10;;;14.90;99.90;;;;;;5093173;28;20071;-59
2021/06/14 03:45:38;;;;;;;17.45;5.90;;;14.90;99.90;;;;;;5092833;28;20047;-59
2021/06/14 03:48:05;;;;;;;11.48;6.47;;;14.90;99.90;;;;;;5074056;28;20093;-58
2021/06/14 03:50:31;;;;;;;11.52;5.95;;;14.90;99.90;;;;;;5092855;28;20047;-58
2021/06/14 03:52:56;;;;;;;11.93;5.43;;;14.90;99.90;;;;;;5092291;28;20390;-59
2021/06/14 03:55:23;;;;;;;10.20;5.82;;;14.90;99.90;;;;;;5092594;28;20382;-59
2021/06/14 03:57:48;;;;;;;11.73;5.70;;;14.90;99.90;;;;;;5092716;28;20389;-58
2021/06/14 04:00:16;;;;;;;8.25;5.50;;;14.90;99.90;;;;;;5092354;28;20040;-59
2021/06/14 04:02:42;;;;;;;13.38;5.95;;;14.90;99.90;;;;;;5092330;28;20037;-59
2021/06/14 04:05:09;;;;;;;9.65;5.90;;;14.90;99.90;;;;;;5092594;28;20093;-59
2021/06/14 04:07:35;;;;;;;11.95;5.78;;;14.90;99.90;;;;;;5092424;28;20093;-59
2021/06/14 04:10:03;;;;;;;14.70;5.97;;;15.00;99.90;;;;;;5092637;28;20048;-59
2021/06/14 04:12:30;;;;;;;11.93;6.68;;;15.00;99.90;;;;;;5092122;28;20531;-59
2021/06/14 04:14:56;;;;;;;18.92;6.22;;;15.00;99.90;;;;;;5092739;28;20044;-59
2021/06/14 04:17:22;;;;;;;11.55;6.10;;;15.10;99.90;;;;;;5092437;28;20112;-59
2021/06/14 04:19:48;;;;;;;11.23;5.93;;;15.10;99.90;;;;;;5092340;28;20059;-59
2021/06/14 04:22:14;;;;;;;13.50;6.82;;;15.10;99.90;;;;;;5092515;28;20113;-60
2021/06/14 04:24:40;;;;;;;9.68;6.20;;;15.20;99.90;;;;;;5092619;28;20075;-59
2021/06/14 04:27:06;;;;;;;10.45;6.10;;;15.20;99.90;;;;;;5092513;28;20051;-58
2021/06/14 04:29:33;;;;;;;11.00;6.18;;;15.20;99.90;;;;;;5092653;28;20082;-59
2021/06/14 04:31:59;;;;;;;11.68;6.05;;;15.30;99.90;;;;;;5091199;28;20051;-59
2021/06/14 04:34:26;;;;;;;11.65;6.20;;;15.30;99.90;;;;;;5100480;28;20429;-56
2021/06/14 04:36:53;;;;;;;13.43;5.78;;;15.30;99.90;;;;;;5100091;28;20044;-55
2021/06/14 04:39:19;;;;;;;12.32;6.10;;;15.30;99.90;;;;;;5096570;28;20052;-56
2021/06/14 04:41:46;;;;;;;12.18;6.63;;;15.40;99.90;;;;;;5100340;28;20040;-55
2021/06/14 04:44:12;;;;;;;13.13;6.70;;;15.40;99.90;;;;;;5103527;28;20039;-55
2021/06/14 04:46:38;;;;;;;12.70;6.65;;;15.50;99.90;;;;;;5105774;28;20043;-55
2021/06/14 04:49:04;;;;;;;9.40;6.18;;;15.50;99.90;;;;;;5106055;28;20397;-55
2021/06/14 04:51:30;;;;;;;13.15;6.50;;;15.60;99.90;;;;;;5103577;28;20474;-55
2021/06/14 04:53:56;;;;;;;18.23;7.40;;;15.60;99.90;;;;;;5103664;28;20055;-55
2021/06/14 04:56:22;;;;;;;10.32;7.03;;;15.70;99.90;;;;;;5101622;28;20436;-56
2021/06/14 04:58:48;;;;;;;10.95;6.40;;;15.70;99.90;;;;;;5105459;28;20051;-56
2021/06/14 05:01:13;;;;;;;9.35;6.30;;;15.80;99.90;;;;;;5105715;28;20085;-55
2021/06/14 05:03:39;;;;;;;10.18;6.55;;;15.90;99.90;;;;;;5103960;28;20060;-55
2021/06/14 05:06:05;;;;;;;15.75;7.03;;;15.90;99.90;;;;;;5104383;28;20477;-56
2021/06/14 05:08:32;;;;;;;12.77;6.40;;;16.00;99.90;;;;;;5104498;28;20058;-55
2021/06/14 05:10:57;;;;;;;12.15;6.65;;;16.10;99.90;;;;;;5098902;28;20044;-56
2021/06/14 05:13:23;;;;;;;13.32;6.28;;;16.10;99.90;;;;;;5094359;28;20036;-55
2021/06/14 05:15:49;;;;;;;19.48;7.22;;;16.20;99.90;;;;;;5084923;28;20036;-55
2021/06/14 05:18:15;;;;;;;13.90;6.85;;;16.30;99.90;;;;;;5082769;28;20549;-56
2021/06/14 05:20:40;;;;;;;14.95;7.28;;;16.30;99.90;;;;;;5083443;28;20048;-55
2021/06/14 05:23:07;;;;;;;12.90;5.90;;;16.40;99.90;;;;;;5084626;28;20034;-55
2021/06/14 05:25:34;;;;;;;13.90;6.80;;;16.50;99.90;;;;;;5085073;28;20793;-55
2021/06/14 05:28:00;;;;;;;13.07;6.90;;;16.60;99.90;;;;;;5094274;28;20186;-55
2021/06/14 05:30:26;;;;;;;14.35;7.32;;;16.70;99.90;;;;;;5094323;28;20142;-56
2021/06/14 05:32:52;;;;;;;10.20;6.38;;;16.80;99.90;;;;;;5084414;28;20394;-56
2021/06/14 05:35:18;;;;;;;11.77;6.95;;;16.90;99.90;;;;;;5086107;28;20032;-55
2021/06/14 05:37:44;;;;;;;12.43;6.68;;;17.00;99.90;;;;;;5092785;28;20063;-59
2021/06/14 05:40:11;;;;;;;16.45;6.65;;;17.20;99.90;;;;;;5087504;28;20039;-60
2021/06/14 05:42:37;;;;;;;15.15;6.97;;;17.30;99.90;;;;;;5091048;28;20128;-59
2021/06/14 05:45:06;;;;;;;15.10;7.28;;;17.40;99.90;;;;;;5101612;28;20036;-59
2021/06/14 05:47:32;;;;;;;9.60;6.43;;;17.40;99.90;;;;;;5094212;28;20052;-59
2021/06/14 05:49:58;;;;;;;12.30;6.10;;;17.50;99.90;;;;;;5092449;28;20050;-59
2021/06/14 05:52:24;;;;;;;15.55;6.95;;;17.60;99.90;;;;;;5074125;28;20486;-59
2021/06/14 05:54:50;;;;;;;11.32;6.88;;;17.70;99.90;;;;;;5074128;28;20087;-59
2021/06/14 05:57:16;;;;;;;15.27;7.45;;;17.90;99.90;;;;;;5074172;28;20561;-59
2021/06/14 05:59:41;;;;;;;13.55;6.38;;;18.00;99.90;;;;;;5074404;28;20136;-59
2021/06/14 06:02:08;;;;;;;7.95;5.82;;;18.10;99.90;;;;;;5074155;28;20131;-59
2021/06/14 06:04:34;;;;;;;8.50;6.15;;;18.30;99.90;;;;;;5074144;28;20044;-59
2021/06/14 06:07:00;;;;;;;11.63;6.38;;;18.40;99.90;;;;;;5073939;28;20041;-60
2021/06/14 06:09:26;;;;;;;10.80;6.65;;;18.50;99.90;;;;;;5074026;28;20440;-59
2021/06/14 06:11:52;;;;;;;9.80;5.63;;;18.60;99.90;;;;;;5073872;28;20040;-59
2021/06/14 06:14:18;;;;;;;10.05;5.15;;;18.80;99.90;;;;;;5074055;28;20499;-59
2021/06/14 06:16:44;;;;;;;11.82;5.65;;;18.90;99.90;;;;;;5073879;28;20044;-59
2021/06/14 06:19:09;;;;;;;12.05;5.53;;;19.00;99.90;;;;;;5073351;28;20063;-59
2021/06/14 06:21:36;;;;;;;9.18;4.70;;;19.20;99.90;;;;;;5073873;28;20041;-58
2021/06/14 06:24:02;;;;;;;15.25;5.53;;;19.30;99.90;;;;;;5073744;28;20045;-59
2021/06/14 06:26:27;;;;;;;12.25;5.00;;;19.40;99.90;;;;;;5073748;28;20083;-59
2021/06/14 06:28:53;;;;;;;10.65;5.13;;;19.60;99.90;;;;;;5073933;28;20454;-60
2021/06/14 06:31:19;;;;;;;6.47;4.78;;;19.80;99.90;;;;;;5073084;28;20040;-60
2021/06/14 06:33:45;;;;;;;8.90;5.03;;;19.90;99.90;;;;;;5073499;28;20135;-60
2021/06/14 06:36:11;;;;;;;13.23;5.28;;;20.10;99.90;;;;;;5055518;28;20657;-59
2021/06/14 06:38:38;;;;;;;10.57;4.68;;;20.20;99.90;;;;;;5073216;28;20047;-58
2021/06/14 06:41:05;;;;;;;12.25;5.07;;;20.30;99.90;;;;;;5073193;28;20048;-60
2021/06/14 06:43:34;;;;;;;8.82;4.47;;;20.50;99.90;;;;;;5073081;28;20071;-59
2021/06/14 06:46:00;;;;;;;11.27;4.63;;;20.60;99.90;;;;;;5072961;28;20040;-59
2021/06/14 06:48:25;;;;;;;10.68;4.57;;;20.80;99.90;;;;;;5073263;28;20094;-60
2021/06/14 06:50:51;;;;;;;10.63;4.80;;;20.80;99.90;;;;;;5073161;28;20075;-60
2021/06/14 06:53:18;;;;;;;8.27;4.40;;;20.80;99.90;;;;;;5072841;28;20450;-59
2021/06/14 06:55:44;;;;;;;11.63;4.30;;;21.00;99.90;;;;;;5072925;28;20041;-60
2021/06/14 06:58:10;;;;;;;8.68;4.60;;;21.10;99.90;;;;;;5072684;28;20047;-60
2021/06/14 07:00:36;;;;;;;10.90;4.72;;;21.20;99.90;;;;;;5072791;28;20068;-60
2021/06/14 07:03:02;;;;;;;10.32;4.65;;;21.40;99.40;;;;;;5073025;28;20139;-59
2021/06/14 07:05:28;;;;;;;10.60;4.80;;;21.50;99.40;;;;;;5072395;28;20120;-61
2021/06/14 07:07:53;;;;;;;8.65;3.80;;;21.60;98.30;;;;;;5072971;28;20075;-60
2021/06/14 07:10:19;;;;;;;11.25;4.80;;;21.90;99.20;;;;;;5072946;28;20049;-59
2021/06/14 07:12:45;;;;;;;7.18;4.00;;;22.00;99.50;;;;;;5072547;28;20127;-60
2021/06/14 07:15:12;;;;;;;13.00;4.65;;;22.20;99.10;;;;;;5072703;28;20371;-60
2021/06/14 07:17:44;;;;;;;9.25;4.50;;;22.40;98.00;;;;;;5072695;28;20105;-60
2021/06/14 07:20:12;;;;;;;11.35;4.80;;;22.40;98.20;;;;;;5072031;28;20486;-60
2021/06/14 07:22:39;;;;;;;9.38;4.35;;;22.40;97.10;;;;;;5072552;28;20047;-59
2021/06/14 07:25:06;;;;;;;15.52;4.90;;;22.60;97.40;;;;;;5072236;28;20087;-59
2021/06/14 07:27:32;;;;;;;11.23;4.38;;;22.70;96.90;;;;;;5054406;28;20044;-60
2021/06/14 07:30:00;;;;;;;9.38;4.40;;;22.70;96.00;;;;;;5072088;28;20398;-59
2021/06/14 07:32:25;;;;;;;9.50;3.83;;;23.00;96.30;;;;;;5072161;28;20040;-60
2021/06/14 07:34:51;;;;;;;12.95;4.13;;;23.10;96.10;;;;;;5072115;28;20043;-59
2021/06/14 07:37:18;;;;;;;9.60;3.90;;;23.30;95.40;;;;;;5072003;28;20044;-59
2021/06/14 07:39:45;;;;;;;7.57;3.40;;;23.40;95.60;;;;;;5072082;28;20040;-60
2021/06/14 07:42:11;;;;;;;9.10;3.63;;;23.50;95.40;;;;;;5071888;28;20047;-59
2021/06/14 07:44:37;;;;;;;9.73;4.22;;;23.50;95.70;;;;;;5072144;28;20036;-60
2021/06/14 07:47:03;;;;;;;10.95;4.47;;;23.70;95.60;;;;;;5071915;28;20044;-58
2021/06/14 07:49:29;;;;;;;11.80;4.20;;;23.70;94.60;;;;;;5071804;28;20033;-60
2021/06/14 07:51:55;;;;;;;8.98;3.97;;;23.70;95.00;;;;;;5071906;28;20466;-60
2021/06/14 07:54:21;;;;;;;7.95;3.67;;;24.00;94.20;;;;;;5071868;28;20044;-61
2021/06/14 07:56:48;;;;;;;9.15;3.70;;;24.30;92.80;;;;;;5071688;28;20055;-61
2021/06/14 07:59:13;;;;;;;8.95;4.00;;;24.10;93.70;;;;;;5072175;28;20044;-60
2021/06/14 08:01:40;;;;;;;7.68;3.58;;;24.60;93.50;;;;;;5071942;28;20075;-60
2021/06/14 08:04:06;;;;;;;7.90;4.03;;;24.90;92.80;;;;;;5072072;28;20141;-60
2021/06/14 08:06:32;;;;;;;6.95;3.40;;;25.30;92.60;;;;;;5072097;28;20398;-62
2021/06/14 08:08:58;;;;;;;10.15;3.38;;;25.30;90.90;;;;;;5071699;28;20102;-60
2021/06/14 08:11:23;;;;;;;8.40;4.10;;;25.90;90.50;;;;;;5071562;28;20041;-61
2021/06/14 08:13:50;;;;;;;9.60;3.85;;;25.50;90.70;;;;;;5071772;28;20463;-61
2021/06/14 08:16:16;;;;;;;9.43;3.95;;;26.00;91.80;;;;;;5071733;28;20072;-60
2021/06/14 08:18:46;;;;;;;6.38;3.70;;;26.20;91.30;;;;;;5073996;28;20041;-60
2021/06/14 08:26:25;;;;;;;11.30;3.67;;;26.90;89.60;;;;;;5075556;28;20040;-61
2021/06/14 08:28:51;;;;;;;10.50;3.95;;;27.20;89.90;;;;;;5075373;28;20079;-60
2021/06/14 08:31:17;;;;;;;9.23;3.38;;;27.10;88.90;;;;;;5075929;28;20045;-61
2021/06/14 08:33:43;;;;;;;7.60;3.55;;;27.40;89.80;;;;;;5075378;28;20064;-60
2021/06/14 08:36:10;;;;;;;7.43;3.70;;;27.30;87.80;;;;;;5075386;28;20068;-60
2021/06/14 08:38:36;;;;;;;10.07;3.50;;;27.60;87.00;;;;;;5075283;28;20391;-61
2021/06/14 08:41:02;;;;;;;9.10;4.38;;;27.40;85.10;;;;;;5075583;28;20049;-60
2021/06/14 08:43:28;;;;;;;8.95;3.42;;;27.20;85.90;;;;;;5075354;28;20047;-61
2021/06/14 08:45:56;;;;;;;9.50;3.60;;;27.40;86.10;;;;;;5056680;28;20052;-61
2021/06/14 08:48:22;;;;;;;7.22;3.88;;;27.40;85.70;;;;;;5077294;28;20465;-61
2021/06/14 08:50:48;;;;;;;10.95;4.22;;;27.20;86.40;;;;;;5093653;28;20123;-61
2021/06/14 08:53:14;;;;;;;8.82;3.63;;;27.30;85.00;;;;;;5094689;28;20131;-61
2021/06/14 08:55:40;;;;;;;10.60;4.50;;;27.40;85.40;;;;;;5095445;28;20035;-61
2021/06/14 08:58:07;;;;;;;9.93;4.28;;;27.40;84.30;;;;;;5095072;28;20497;-61
2021/06/14 09:00:35;;;;;;;13.32;4.43;;;27.00;84.60;;;;;;5095199;28;20563;-61
2021/06/14 09:03:01;;;;;;;;;;;26.90;83.30;;;;;;5095711;28;20044;-60
2021/06/14 09:05:27;;;;;;;9.85;4.10;;;26.70;83.60;;;;;;5095057;28;20359;-61
2021/06/14 09:07:58;;;;;;;9.40;4.25;;;26.70;85.40;;;;;;5094819;28;20485;-61
2021/06/14 09:10:28;;;;;;;9.15;3.97;;;27.10;85.90;;;;;;5092251;28;20048;-61
2021/06/14 09:13:08;;;;;;;9.07;4.07;;;27.30;85.50;;;;;;5102838;28;20067;-60
2021/06/14 09:15:34;;;;;;;11.38;4.53;;;27.40;84.60;;;;;;5102808;28;20484;-61
2021/06/14 09:18:00;;;;;;;10.35;4.25;;;27.40;84.40;;;;;;5105004;28;20039;-60
2021/06/14 09:20:27;;;;;;;9.05;4.03;;;27.40;84.50;;;;;;5104220;28;20139;-62
2021/06/14 09:22:54;;;;;;;7.95;4.38;;;27.20;81.90;;;;;;5105844;28;20043;-61
2021/06/14 09:25:20;;;;;;;10.38;4.47;;;26.90;83.50;;;;;;5094641;28;20493;-60
2021/06/14 09:27:51;;;;;;;11.68;4.65;;;26.90;83.50;;;;;;5094721;28;20092;-60
2021/06/14 09:30:32;;;;;;;11.80;4.47;;;27.20;85.00;;;;;;5094279;28;20048;-61
2021/06/14 09:33:07;;;;;;;11.77;5.18;;;27.70;84.50;;;;;;5094469;28;20043;-61
2021/06/14 09:35:36;;;;;;;14.07;5.18;;;28.00;82.60;;;;;;5094397;28;20397;-61
2021/06/14 09:38:05;;;;;;;14.45;4.32;;;28.30;82.80;;;;;;5094431;28;20094;-60
2021/06/14 09:40:40;;;;;;;8.18;4.30;;;28.70;83.90;;;;;;5094390;28;20119;-61
2021/06/14 09:43:20;;;;;;;13.75;5.13;;;28.60;82.20;;;;;;5094278;28;20416;-62
2021/06/14 09:45:46;;;;;;;8.15;4.90;;;28.40;82.30;;;;;;5094610;28;20044;-61
2021/06/14 09:48:20;;;;;;;12.00;4.72;;;28.20;82.60;;;;;;5094280;28;20054;-60
2021/06/14 09:50:48;;;;;;;7.38;4.00;;;28.40;82.10;;;;;;5094074;28;20119;-61
2021/06/14 09:53:17;;;;;;;9.85;3.65;;;28.40;82.10;;;;;;5075991;28;20052;-62
2021/06/14 09:55:45;;;;;;;9.95;4.20;;;28.40;80.50;;;;;;5094240;28;20051;-62
2021/06/14 09:58:15;;;;;;;8.00;4.43;;;28.20;82.00;;;;;;5094432;28;20387;-61
2021/06/14 10:00:52;;;;;;;8.73;4.32;;;27.80;79.90;;;;;;5094384;28;20474;-64
2021/06/14 10:03:19;;;;;;;11.73;4.65;;;27.50;81.30;;;;;;5094046;28;20040;-61
2021/06/14 10:05:47;;;;;;;8.13;4.50;;;27.50;81.30;;;;;;5093848;28;20075;-61
2021/06/14 10:08:13;;;;;;;11.65;4.38;;;27.50;81.00;;;;;;5094177;28;20075;-61
2021/06/14 10:10:39;;;;;;;10.13;4.53;;;27.70;82.40;;;;;;5093899;28;20103;-61
2021/06/14 10:13:06;;;;;;;10.75;3.50;;;27.60;80.90;;;;;;5093764;28;20059;-61
2021/06/14 10:15:37;;;;;;;7.30;3.60;;;27.60;80.20;;;;;;5093774;28;20094;-62
2021/06/14 10:18:05;;;;;;;8.25;3.88;;;27.70;78.90;;;;;;5093781;28;20054;-62
2021/06/14 10:20:31;;;;;;;14.00;3.50;;;27.90;80.10;;;;;;5093632;28;20051;-62
2021/06/14 10:22:59;;;;;;;9.82;3.97;;;28.10;80.40;;;;;;5093710;28;20278;-62
2021/06/14 10:25:26;;;;;;;7.72;4.07;;;28.40;80.50;;;;;;5093922;28;20401;-62
2021/06/14 10:27:53;;;;;;;5.77;3.47;;;28.60;79.70;;;;;;5093632;28;20070;-62
2021/06/14 10:30:22;;;;;;;9.90;4.20;;;29.10;79.10;;;;;;5102098;28;20036;-62
2021/06/14 10:32:48;;;;;;;9.45;4.35;;;29.10;78.70;;;;;;5099425;28;20063;-63
2021/06/14 10:35:16;;;;;;;8.32;4.10;;;29.00;78.40;;;;;;5093484;28;20115;-63
2021/06/14 10:37:53;;;;;;;10.27;3.92;;;28.70;79.00;;;;;;5104421;28;20477;-63
2021/06/14 10:40:25;;;;;;;9.63;4.35;;;29.00;78.50;;;;;;5102413;28;20039;-61
2021/06/14 10:42:54;;;;;;;11.73;4.38;;;29.20;78.30;;;;;;5113713;28;20036;-62
2021/06/14 10:45:30;;;;;;;6.35;3.47;;;28.90;77.50;;;;;;5113888;28;20049;-64
2021/06/14 10:47:57;;;;;;;7.68;4.13;;;29.00;76.00;;;;;;5113468;28;20370;-61
2021/06/14 10:50:31;;;;;;;8.93;3.75;;;28.60;75.40;;;;;;5098453;28;20044;-61
2021/06/14 10:52:57;;;;;;;6.75;3.53;;;28.80;78.20;;;;;;5095823;28;20551;-62
2021/06/14 10:55:29;;;;;;;9.52;4.03;;;29.50;76.80;;;;;;5093397;28;20044;-62
2021/06/14 10:57:56;;;;;;;9.43;3.70;;;29.70;76.00;;;;;;5093140;28;20047;-64
2021/06/14 11:00:29;;;;;;;10.52;4.03;;;29.10;75.40;;;;;;5093012;28;20474;-62
2021/06/14 11:03:06;;;;;;;9.00;4.10;;;28.90;75.00;;;;;;5093261;28;20067;-62
2021/06/14 11:05:43;;;;;;;8.95;3.38;;;28.90;75.10;;;;;;5093432;28;20127;-61
2021/06/14 11:08:20;;;;;;;7.45;3.55;;;29.10;74.20;;;;;;5092981;28;20047;-61
2021/06/14 11:10:49;;;;;;;6.38;3.83;;;29.40;73.70;;;;;;5093037;28;20511;-62
2021/06/14 11:13:16;;;;;;;9.60;3.80;;;29.50;74.90;;;;;;5093180;28;20047;-62
2021/06/14 11:15:44;;;;;;;8.75;3.90;;;29.40;74.80;;;;;;5095286;28;20042;-62
2021/06/14 11:18:24;;;;;;;10.02;4.05;;;29.10;74.00;;;;;;5098119;28;20127;-62
2021/06/14 11:21:14;;;;;;;15.77;4.07;;;29.20;74.90;;;;;;5092593;28;20086;-61
2021/06/14 11:23:42;;;;;;;7.10;3.30;;;29.40;77.80;;;;;;5009009;28;20060;-65
2021/06/14 11:26:11;;;;;;;11.70;3.70;;;29.50;76.80;;;;;;5010401;28;20054;-62
2021/06/14 11:28:39;;;;;;;8.43;4.65;;;29.50;77.70;;;;;;5010501;28;20053;-62
2021/06/14 11:31:24;;;;;;;9.02;4.07;;;29.20;76.00;;;;;;5010746;28;20052;-62
2021/06/14 11:33:53;;;;;;;10.60;4.30;;;29.10;76.80;;;;;;5010325;28;20077;-63
2021/06/14 11:36:25;;;;;;;8.05;4.07;;;29.20;76.20;;;;;;5010492;28;20042;-62
2021/06/14 11:38:52;;;;;;;11.65;4.50;;;29.40;76.70;;;;;;5010428;28;20057;-62
2021/06/14 11:41:34;;;;;;;7.47;3.87;;;29.40;75.70;;;;;;5010294;28;20054;-62
2021/06/14 11:44:20;;;;;;;8.40;4.28;;;29.50;77.20;;;;;;5010043;28;20042;-63
2021/06/14 11:46:55;;;;;;;10.57;4.63;;;29.20;77.00;;;;;;5010247;28;20053;-63
2021/06/14 11:49:31;;;;;;;10.52;4.65;;;29.20;77.50;;;;;;5010306;28;20046;-64
2021/06/14 11:51:56;;;;;;;7.57;4.30;;;29.30;78.70;;;;;;5010421;28;20056;-62
2021/06/14 11:54:24;;;;;;;8.20;4.15;;;29.50;79.30;;;;;;5010085;28;20121;-62
2021/06/14 11:57:01;;;;;;;7.78;3.95;;;29.50;77.70;;;;;;5010297;28;20051;-63
2021/06/14 11:59:34;;;;;;;11.23;5.30;;;29.80;78.60;;;;;;5010112;28;20069;-62
2021/06/14 12:02:16;;;;;;;9.88;5.20;;;29.60;77.20;;;;;;5085346;28;20040;-63
2021/06/14 12:04:49;;;;;;;10.57;5.47;;;29.50;77.70;;;;;;5091917;28;20500;-63
2021/06/14 12:07:26;;;;;;;10.60;5.10;;;29.30;76.90;;;;;;5091873;28;20047;-63
2021/06/14 12:09:55;;;;;;;11.32;5.38;;;29.30;78.20;;;;;;5092320;28;20131;-64
2021/06/14 12:12:21;;;;;;;13.65;6.03;;;29.40;79.50;;;;;;5091822;28;20050;-62
2021/06/14 12:14:52;;;;;;;11.48;7.22;;;29.20;79.10;;;;;;5091862;28;20489;-62
2021/06/14 12:17:33;;;;;;;12.32;6.15;;;29.10;79.10;;;;;;5092065;28;20052;-62
2021/06/14 12:20:00;;;;;;;12.05;6.00;;;29.10;79.30;;;;;;5091767;28;20048;-62
2021/06/14 12:22:28;;;;;;;14.68;5.93;;;29.20;79.90;;;;;;5091815;28;20048;-62
2021/06/14 12:25:00;;;;;;;11.50;6.70;;;28.90;79.10;;;;;;5091705;28;20044;-63
2021/06/14 12:27:26;;;;;;;14.40;6.45;;;28.70;78.50;;;;;;5091852;28;20131;-63
2021/06/14 12:29:59;;;;;;;17.45;6.72;;;28.70;79.00;;;;;;5092020;28;20119;-64
2021/06/14 12:32:28;;;;;;;6.88;4.80;;;28.70;79.10;;;;;;5091845;28;20032;-62
2021/06/14 12:34:58;;;;;;;6.50;4.35;;;28.70;80.60;;;;;;5092003;28;20078;-62
2021/06/14 12:37:24;;;;;;;11.05;6.35;;;28.70;79.40;;;;;;5088792;28;20113;-62
2021/06/14 12:40:05;;;;;;;16.35;7.07;;;28.60;78.90;;;;;;5093240;28;20085;-63
2021/06/14 12:42:31;;;;;;;11.80;6.60;;;28.40;77.60;;;;;;5079838;28;20096;-62
2021/06/14 12:45:12;;;;;;;9.63;6.40;;;28.30;78.70;;;;;;5104104;28;20107;-63
2021/06/14 12:47:44;;;;;;;9.95;6.35;;;28.20;78.10;;;;;;5097677;28;20051;-63
2021/06/14 12:50:31;;;;;;;11.45;7.25;;;28.10;79.20;;;;;;5091821;28;20062;-62